createdAt,value
2022-11-24T00:01:31.790Z,2.85
2022-11-24T00:04:01.841Z,2.85
2022-11-24T00:06:30.748Z,2.82
2022-11-24T00:09:01.652Z,2.85
2022-11-24T00:11:31.780Z,2.78
2022-11-24T00:13:59.521Z,2.76
2022-11-24T00:16:29.092Z,2.79
2022-11-24T00:18:57.979Z,2.80
2022-11-24T00:21:26.757Z,2.88
2022-11-24T00:23:54.500Z,2.99
2022-11-24T00:26:39.610Z,2.92
2022-11-24T00:29:07.794Z,2.92
2022-11-24T00:31:37.667Z,2.90
2022-11-24T00:34:07.942Z,2.92
2022-11-24T00:36:35.765Z,2.88
2022-11-24T00:39:06.055Z,2.89
2022-11-24T00:41:33.937Z,2.91
2022-11-24T00:44:01.298Z,2.77
2022-11-24T00:46:28.573Z,2.72
2022-11-24T00:48:56.362Z,2.69
2022-11-24T00:51:27.153Z,2.68
2022-11-24T00:53:56.294Z,2.69
2022-11-24T00:56:24.820Z,2.72
2022-11-24T00:58:52.904Z,2.79
2022-11-24T01:01:23.383Z,2.80
2022-11-24T01:03:51.465Z,2.77
2022-11-24T01:06:21.960Z,2.65
2022-11-24T01:08:49.287Z,2.67
2022-11-24T01:11:19.706Z,2.70
2022-11-24T01:13:49.552Z,2.73
2022-11-24T01:16:29.061Z,2.73
2022-11-24T01:18:56.278Z,2.82
2022-11-24T01:21:23.593Z,2.81
2022-11-24T01:23:50.764Z,2.75
2022-11-24T01:26:22.037Z,2.71
2022-11-24T01:28:56.694Z,2.72
2022-11-24T01:31:25.413Z,2.80
2022-11-24T01:33:53.291Z,2.76
2022-11-24T01:36:21.122Z,2.79
2022-11-24T01:38:48.445Z,2.75
2022-11-24T01:41:18.836Z,2.80
2022-11-24T01:43:47.631Z,2.72
2022-11-24T01:46:29.691Z,2.73
2022-11-24T01:49:11.630Z,2.63
2022-11-24T01:51:52.402Z,2.60
2022-11-24T01:54:28.428Z,2.55
2022-11-24T01:57:00.601Z,2.54
2022-11-24T01:59:28.258Z,2.51
2022-11-24T02:01:56.926Z,2.44
2022-11-24T02:04:29.721Z,2.42
2022-11-24T02:06:59.129Z,2.41
2022-11-24T02:09:37.445Z,2.42
2022-11-24T02:12:06.009Z,2.39
2022-11-24T02:14:35.287Z,2.41
2022-11-24T02:17:02.641Z,2.33
2022-11-24T02:19:48.674Z,2.31
2022-11-24T02:22:30.000Z,2.30
2022-11-24T02:25:16.807Z,2.16
2022-11-24T02:27:49.390Z,2.01
2022-11-24T02:30:19.465Z,1.99
2022-11-24T02:32:46.581Z,1.97
2022-11-24T02:35:14.023Z,1.91
2022-11-24T02:37:41.193Z,1.88
2022-11-24T02:40:08.966Z,1.90
2022-11-24T02:42:42.756Z,1.94
2022-11-24T02:45:11.310Z,1.97
2022-11-24T02:47:38.317Z,1.98
2022-11-24T02:50:05.952Z,2.01
2022-11-24T02:52:33.052Z,1.98
2022-11-24T02:55:00.137Z,1.98
2022-11-24T02:57:27.276Z,1.93
2022-11-24T02:59:54.365Z,1.95
2022-11-24T03:02:21.716Z,1.93
2022-11-24T03:04:48.848Z,1.98
2022-11-24T03:07:16.082Z,2.00
2022-11-24T03:09:43.201Z,1.98
2022-11-24T03:12:10.388Z,2.00
2022-11-24T03:14:37.580Z,2.02
2022-11-24T03:17:04.745Z,2.01
2022-11-24T03:19:31.824Z,1.95
2022-11-24T03:21:59.513Z,1.94
2022-11-24T03:24:26.694Z,1.95
2022-11-24T03:26:53.890Z,1.91
2022-11-24T03:29:21.224Z,1.90
2022-11-24T03:31:48.283Z,1.91
2022-11-24T03:34:15.435Z,1.94
2022-11-24T03:36:42.546Z,1.97
2022-11-24T03:39:09.828Z,1.97
2022-11-24T03:41:36.905Z,1.95
2022-11-24T03:44:04.225Z,2.01
2022-11-24T03:46:31.391Z,1.98
2022-11-24T03:48:58.533Z,1.96
2022-11-24T03:51:25.601Z,1.94
2022-11-24T03:53:52.687Z,1.94
2022-11-24T03:56:20.547Z,1.97
2022-11-24T03:58:47.646Z,1.86
2022-11-24T04:01:14.803Z,1.74
2022-11-24T04:03:41.948Z,1.71
2022-11-24T04:06:09.108Z,1.66
2022-11-24T04:08:36.166Z,1.62
2022-11-24T04:11:03.522Z,1.59
2022-11-24T04:13:30.628Z,1.63
2022-11-24T04:15:57.793Z,1.68
2022-11-24T04:18:24.976Z,1.64
2022-11-24T04:20:52.337Z,1.62
2022-11-24T04:23:19.902Z,1.63
2022-11-24T04:25:47.262Z,1.62
2022-11-24T04:28:14.595Z,1.56
2022-11-24T04:30:44.628Z,1.60
2022-11-24T04:33:13.094Z,1.65
2022-11-24T04:35:40.245Z,1.67
2022-11-24T04:38:07.326Z,1.71
2022-11-24T04:40:34.761Z,1.77
2022-11-24T04:43:01.864Z,1.79
2022-11-24T04:45:28.947Z,1.87
2022-11-24T04:47:56.086Z,1.90
2022-11-24T04:50:23.280Z,1.90
2022-11-24T04:52:50.466Z,1.88
2022-11-24T04:55:17.684Z,1.89
2022-11-24T04:57:44.762Z,1.85
2022-11-24T05:00:12.509Z,1.72
2022-11-24T05:02:39.817Z,1.67
2022-11-24T05:05:07.536Z,1.66
2022-11-24T05:07:35.020Z,1.75
2022-11-24T05:10:21.053Z,1.85
2022-11-24T05:12:56.144Z,1.87
2022-11-24T05:15:23.629Z,1.81
2022-11-24T05:17:50.767Z,1.80
2022-11-24T05:20:18.239Z,1.79
2022-11-24T05:22:45.477Z,1.75
2022-11-24T05:25:12.927Z,1.67
2022-11-24T05:27:40.537Z,1.66
2022-11-24T05:30:08.747Z,1.67
2022-11-24T05:32:35.862Z,1.62
2022-11-24T05:35:05.408Z,1.64
2022-11-24T05:37:32.497Z,1.66
2022-11-24T05:39:59.708Z,1.63
2022-11-24T05:42:46.529Z,1.65
2022-11-24T05:45:20.101Z,1.61
2022-11-24T05:47:48.026Z,1.61
2022-11-24T05:50:17.006Z,1.57
2022-11-24T05:52:44.730Z,1.55
2022-11-24T05:55:12.389Z,1.52
2022-11-24T05:57:39.528Z,1.53
2022-11-24T06:00:08.773Z,1.50
2022-11-24T06:02:41.724Z,1.48
2022-11-24T06:05:09.333Z,1.52
2022-11-24T06:07:36.543Z,1.62
2022-11-24T06:10:04.531Z,1.62
2022-11-24T06:12:31.686Z,1.56
2022-11-24T06:14:58.752Z,1.55
2022-11-24T06:17:25.928Z,1.55
2022-11-24T06:19:53.083Z,1.48
2022-11-24T06:22:20.336Z,1.48
2022-11-24T06:24:47.475Z,1.53
2022-11-24T06:27:14.575Z,1.48
2022-11-24T06:29:42.241Z,1.52
2022-11-24T06:32:09.527Z,1.54
2022-11-24T06:34:36.968Z,1.56
2022-11-24T06:37:04.316Z,1.63
2022-11-24T06:39:31.412Z,1.69
2022-11-24T06:41:58.594Z,1.76
2022-11-24T06:44:25.868Z,1.77
2022-11-24T06:46:53.228Z,1.82
2022-11-24T06:49:20.345Z,1.90
2022-11-24T06:51:47.542Z,1.89
2022-11-24T06:54:16.444Z,1.85
2022-11-24T06:56:43.570Z,1.85
2022-11-24T06:59:17.799Z,1.84
2022-11-24T07:01:45.030Z,1.89
2022-11-24T07:04:12.682Z,1.94
2022-11-24T07:06:42.419Z,2.07
2022-11-24T07:09:11.292Z,2.15
2022-11-24T07:11:39.235Z,2.20
2022-11-24T07:14:06.396Z,2.26
2022-11-24T07:16:33.890Z,2.41
2022-11-24T07:19:01.101Z,2.43
2022-11-24T07:21:29.191Z,2.59
2022-11-24T07:23:57.317Z,2.65
2022-11-24T07:26:24.945Z,2.78
2022-11-24T07:28:52.316Z,2.89
2022-11-24T07:31:21.427Z,2.95
2022-11-24T07:33:50.147Z,3.05
2022-11-24T07:36:17.927Z,3.20
2022-11-24T07:38:45.228Z,3.36
2022-11-24T07:41:13.944Z,3.43
2022-11-24T07:43:41.240Z,3.56
2022-11-24T07:46:14.532Z,3.66
2022-11-24T07:48:41.792Z,3.72
2022-11-24T07:51:09.671Z,3.84
2022-11-24T07:53:37.812Z,3.99
2022-11-24T07:56:06.326Z,4.17
2022-11-24T07:58:35.953Z,4.38
2022-11-24T08:01:15.047Z,4.53
2022-11-24T08:03:43.404Z,4.61
2022-11-24T08:06:32.241Z,4.84
2022-11-24T08:08:58.635Z,4.98
2022-11-24T08:11:26.634Z,5.14
2022-11-24T08:13:53.760Z,5.26
2022-11-24T08:16:21.050Z,5.45
2022-11-24T08:18:53.302Z,5.59
2022-11-24T08:21:23.050Z,5.63
2022-11-24T08:23:54.198Z,5.78
2022-11-24T08:26:21.405Z,5.90
2022-11-24T08:28:54.315Z,6.02
2022-11-24T08:31:21.516Z,6.15
2022-11-24T08:33:48.753Z,6.34
2022-11-24T08:36:18.049Z,6.48
2022-11-24T08:38:45.426Z,6.61
2022-11-24T08:41:14.832Z,6.72
2022-11-24T08:43:42.257Z,6.87
2022-11-24T08:46:12.371Z,7.01
2022-11-24T08:48:39.607Z,7.24
2022-11-24T08:51:08.666Z,7.35
2022-11-24T08:53:35.932Z,7.47
2022-11-24T08:56:03.895Z,7.60
2022-11-24T08:58:31.661Z,7.74
2022-11-24T09:01:25.717Z,7.82
2022-11-24T09:03:53.453Z,7.98
2022-11-24T09:06:24.807Z,8.05
2022-11-24T09:08:54.171Z,8.25
2022-11-24T09:11:22.319Z,8.40
2022-11-24T09:13:49.974Z,8.53
2022-11-24T09:16:22.955Z,8.60
2022-11-24T09:19:01.098Z,8.77
2022-11-24T09:21:29.663Z,8.91
2022-11-24T09:23:57.387Z,9.03
2022-11-24T09:26:27.600Z,9.15
2022-11-24T09:28:56.415Z,9.24
2022-11-24T09:31:26.148Z,9.37
2022-11-24T09:33:54.329Z,9.45
2022-11-24T09:36:22.289Z,9.60
2022-11-24T09:38:49.724Z,9.65
2022-11-24T09:41:19.626Z,9.71
2022-11-24T09:44:28.106Z,9.89
2022-11-24T09:47:03.964Z,9.85
2022-11-24T09:49:38.880Z,9.93
2022-11-24T09:52:12.871Z,9.92
2022-11-24T09:54:50.069Z,9.98
2022-11-24T09:57:20.057Z,10.09
2022-11-24T09:59:47.392Z,10.10
2022-11-24T10:02:32.292Z,10.10
2022-11-24T10:05:00.365Z,10.20
2022-11-24T10:07:33.661Z,10.13
2022-11-24T10:10:25.221Z,10.11
2022-11-24T10:13:05.866Z,10.17
2022-11-24T10:15:33.007Z,10.10
2022-11-24T10:18:21.249Z,10.09
2022-11-24T10:20:54.711Z,10.21
2022-11-24T10:23:37.000Z,10.50
2022-11-24T10:26:13.558Z,10.58
2022-11-24T10:28:52.858Z,10.51
2022-11-24T10:31:31.207Z,10.50
2022-11-24T10:34:03.813Z,10.65
2022-11-24T10:36:55.577Z,10.64
2022-11-24T10:40:00.717Z,10.59
2022-11-24T10:42:31.599Z,10.64
2022-11-24T10:45:01.341Z,10.76
2022-11-24T10:47:30.223Z,10.93
2022-11-24T10:50:04.384Z,10.92
2022-11-24T10:52:40.468Z,11.08
2022-11-24T10:55:08.021Z,11.08
2022-11-24T10:57:37.157Z,11.09
2022-11-24T11:00:19.448Z,11.18
2022-11-24T11:02:48.764Z,11.33
2022-11-24T11:05:27.181Z,11.34
2022-11-24T11:08:30.592Z,11.44
2022-11-24T11:11:13.040Z,11.38
2022-11-24T11:13:56.866Z,11.49
2022-11-24T11:16:30.196Z,11.48
2022-11-24T11:18:57.895Z,11.66
2022-11-24T11:21:39.158Z,11.79
2022-11-24T11:24:18.370Z,11.89
2022-11-24T11:26:45.598Z,11.87
2022-11-24T11:35:04.913Z,12.15
2022-11-24T11:37:33.324Z,12.18
2022-11-24T11:40:00.808Z,12.44
2022-11-24T11:43:07.777Z,12.37
2022-11-24T11:45:37.360Z,12.43
2022-11-24T11:48:04.541Z,12.34
2022-11-24T11:51:14.722Z,12.51
2022-11-24T11:54:05.927Z,12.49
2022-11-24T11:56:37.480Z,12.53
2022-11-24T11:59:26.213Z,12.73
2022-11-24T12:02:21.386Z,12.55
2022-11-24T12:04:58.714Z,12.80
2022-11-24T12:07:36.915Z,12.96
2022-11-24T12:10:30.140Z,12.93
2022-11-24T12:13:02.993Z,12.77
2022-11-24T12:16:05.262Z,12.86
2022-11-24T12:19:00.335Z,13.02
2022-11-24T12:21:43.492Z,13.10
2022-11-24T12:24:16.903Z,13.12
2022-11-24T12:26:49.105Z,13.04
2022-11-24T12:29:50.238Z,13.16
2022-11-24T12:32:23.037Z,13.11
2022-11-24T12:35:09.177Z,12.96
2022-11-24T12:37:51.672Z,13.14
2022-11-24T12:40:47.239Z,13.17
2022-11-24T12:43:14.523Z,13.27
2022-11-24T12:46:01.698Z,13.22
2022-11-24T12:48:34.620Z,13.23
2022-11-24T12:51:04.500Z,13.24
2022-11-24T12:53:37.392Z,13.27
2022-11-24T12:56:10.724Z,13.20
2022-11-24T12:59:00.294Z,13.24
2022-11-24T13:01:42.247Z,13.23
2022-11-24T13:04:32.726Z,13.28
2022-11-24T13:07:04.437Z,13.25
2022-11-24T13:09:31.741Z,13.11
2022-11-24T13:12:12.450Z,13.28
2022-11-24T13:14:43.574Z,13.20
2022-11-24T13:17:45.671Z,13.00
2022-11-24T13:20:23.559Z,13.11
2022-11-24T13:22:55.083Z,13.05
2022-11-24T13:25:35.620Z,12.88
2022-11-24T13:28:06.460Z,12.87
2022-11-24T13:30:33.477Z,12.83
2022-11-24T13:33:16.499Z,12.74
2022-11-24T13:36:25.142Z,12.83
2022-11-24T13:38:54.021Z,12.70
2022-11-24T13:41:33.281Z,12.74
2022-11-24T13:44:15.507Z,12.68
2022-11-24T13:47:05.191Z,12.62
2022-11-24T13:49:46.471Z,12.59
2022-11-24T13:53:08.998Z,12.58
2022-11-24T13:55:39.039Z,12.43
2022-11-24T13:58:09.172Z,12.39
2022-11-24T14:01:13.288Z,12.43
2022-11-24T14:03:55.449Z,12.22
2022-11-24T14:06:36.307Z,12.24
2022-11-24T14:09:17.025Z,12.21
2022-11-24T14:11:46.726Z,12.22
2022-11-24T14:14:21.742Z,12.18
2022-11-24T14:16:49.134Z,12.06
2022-11-24T14:19:19.663Z,11.97
2022-11-24T14:21:46.839Z,11.88
2022-11-24T14:24:38.081Z,11.79
2022-11-24T14:27:17.168Z,11.72
2022-11-24T14:29:55.629Z,11.58
2022-11-24T14:32:23.549Z,11.46
2022-11-24T14:34:52.136Z,11.43
2022-11-24T14:37:20.254Z,11.38
2022-11-24T14:39:47.507Z,11.28
2022-11-24T14:42:24.055Z,11.21
2022-11-24T14:44:59.764Z,11.13
2022-11-24T14:47:36.244Z,11.04
2022-11-24T14:50:15.917Z,10.99
2022-11-24T14:52:46.341Z,10.98
2022-11-24T14:55:27.308Z,10.90
2022-11-24T14:57:54.517Z,10.80
2022-11-24T15:00:24.709Z,10.67
2022-11-24T15:03:08.050Z,10.60
2022-11-24T15:05:54.586Z,10.48
2022-11-24T15:08:24.053Z,10.34
2022-11-24T15:10:57.964Z,10.21
2022-11-24T15:13:26.166Z,10.11
2022-11-24T15:16:02.091Z,10.04
2022-11-24T15:18:35.953Z,9.96
2022-11-24T15:21:03.649Z,9.84
2022-11-24T15:23:32.417Z,9.74
2022-11-24T15:26:02.248Z,9.67
2022-11-24T15:28:30.843Z,9.59
2022-11-24T15:31:03.099Z,9.50
2022-11-24T15:33:30.779Z,9.42
2022-11-24T15:35:57.965Z,9.34
2022-11-24T15:38:25.277Z,9.27
2022-11-24T15:40:55.224Z,9.23
2022-11-24T15:43:25.195Z,9.17
2022-11-24T15:45:52.349Z,9.00
2022-11-24T15:48:19.465Z,8.84
2022-11-24T15:50:47.601Z,8.74
2022-11-24T15:53:31.638Z,8.57
2022-11-24T15:55:59.643Z,8.42
2022-11-24T15:58:26.662Z,8.35
2022-11-24T16:00:53.996Z,8.23
2022-11-24T16:06:15.014Z,8.13
2022-11-24T16:08:43.920Z,8.05
2022-11-24T16:11:11.005Z,7.96
2022-11-24T16:13:38.255Z,7.89
2022-11-24T16:16:06.319Z,7.83
2022-11-24T16:18:35.323Z,7.72
2022-11-24T16:21:02.413Z,7.64
2022-11-24T16:23:29.518Z,7.59
2022-11-24T16:25:56.612Z,7.52
2022-11-24T16:28:23.912Z,7.50
2022-11-24T16:30:51.137Z,7.47
2022-11-24T16:33:18.366Z,7.48
2022-11-24T16:35:48.558Z,7.49
2022-11-24T16:38:19.579Z,7.47
2022-11-24T16:40:54.531Z,7.43
2022-11-24T16:43:21.949Z,7.43
2022-11-24T16:46:18.290Z,7.36
2022-11-24T16:48:46.708Z,7.31
2022-11-24T16:51:14.734Z,7.18
2022-11-24T16:53:42.750Z,7.18
2022-11-24T16:56:10.318Z,7.15
2022-11-24T16:58:38.808Z,7.06
2022-11-24T17:01:08.218Z,7.01
2022-11-24T17:03:38.469Z,7.05
2022-11-24T17:06:11.810Z,7.01
2022-11-24T17:08:40.362Z,6.91
2022-11-24T17:11:09.477Z,6.85
2022-11-24T17:13:37.294Z,6.76
2022-11-24T17:16:06.272Z,6.61
2022-11-24T17:18:33.770Z,6.52
2022-11-24T17:21:07.658Z,6.54
2022-11-24T17:23:36.993Z,6.44
2022-11-24T17:26:06.773Z,6.28
2022-11-24T17:28:35.058Z,6.21
2022-11-24T17:31:21.477Z,6.14
2022-11-24T17:33:53.315Z,6.05
2022-11-24T17:36:21.008Z,5.99
2022-11-24T17:38:51.139Z,5.93
2022-11-24T17:41:19.509Z,5.95
2022-11-24T17:43:55.669Z,5.87
2022-11-24T17:46:26.883Z,5.82
2022-11-24T17:48:54.849Z,5.81
2022-11-24T17:51:24.963Z,5.82
2022-11-24T17:53:54.232Z,5.80
2022-11-24T17:56:23.722Z,5.78
2022-11-24T17:58:59.225Z,5.69
2022-11-24T18:01:28.476Z,5.68
2022-11-24T18:03:55.994Z,5.67
2022-11-24T18:06:26.046Z,5.67
2022-11-24T18:08:54.076Z,5.69
2022-11-24T18:11:30.912Z,5.74
2022-11-24T18:14:01.928Z,5.71
2022-11-24T18:16:31.622Z,5.65
2022-11-24T18:19:10.115Z,5.53
2022-11-24T18:21:41.779Z,5.34
2022-11-24T18:24:12.943Z,5.01
2022-11-24T18:26:41.477Z,4.93
2022-11-24T18:29:09.978Z,4.87
2022-11-24T18:31:38.180Z,4.76
2022-11-24T18:34:06.199Z,4.66
2022-11-24T18:36:34.821Z,4.58
2022-11-24T18:39:04.219Z,4.56
2022-11-24T18:41:31.891Z,4.50
2022-11-24T18:44:02.320Z,4.50
2022-11-24T18:46:29.596Z,4.52
2022-11-24T18:48:56.761Z,4.51
2022-11-24T18:51:23.874Z,4.54
2022-11-24T18:53:58.097Z,4.56
2022-11-24T18:56:26.177Z,4.55
2022-11-24T18:58:54.981Z,4.59
2022-11-24T19:01:25.154Z,4.60
2022-11-24T19:03:55.007Z,4.51
2022-11-24T19:06:32.109Z,4.45
2022-11-24T19:09:02.306Z,4.39
2022-11-24T19:11:33.696Z,4.33
2022-11-24T19:14:04.413Z,4.26
2022-11-24T19:16:32.238Z,4.24
2022-11-24T19:19:00.098Z,4.21
2022-11-24T19:21:30.110Z,4.23
2022-11-24T19:24:02.876Z,4.14
2022-11-24T19:26:32.062Z,3.98
2022-11-24T19:28:59.290Z,3.85
2022-11-24T19:31:26.689Z,3.79
2022-11-24T19:33:54.647Z,3.73
2022-11-24T19:36:22.734Z,3.72
2022-11-24T19:38:52.134Z,3.70
2022-11-24T19:41:21.260Z,3.70
2022-11-24T19:43:48.556Z,3.71
2022-11-24T19:46:18.013Z,3.74
2022-11-24T19:48:50.716Z,3.73
2022-11-24T19:51:20.944Z,3.63
2022-11-24T19:53:48.407Z,3.55
2022-11-24T19:56:24.043Z,3.37
2022-11-24T19:58:52.986Z,3.26
2022-11-24T20:01:25.677Z,3.30
2022-11-24T20:04:00.896Z,3.25
2022-11-24T20:06:33.345Z,3.26
2022-11-24T20:09:01.141Z,3.31
2022-11-24T20:11:29.134Z,3.24
2022-11-24T20:13:56.954Z,3.24
2022-11-24T20:16:29.931Z,3.25
2022-11-24T20:19:05.586Z,3.25
2022-11-24T20:21:34.467Z,3.13
2022-11-24T20:24:24.616Z,3.08
2022-11-24T20:26:56.230Z,3.06
2022-11-24T20:29:23.433Z,3.08
2022-11-24T20:31:53.477Z,3.12
2022-11-24T20:34:21.449Z,3.13
2022-11-24T20:36:49.357Z,3.16
2022-11-24T20:39:22.237Z,3.16
2022-11-24T20:41:49.488Z,3.12
2022-11-24T20:44:18.849Z,3.10
2022-11-24T20:46:47.792Z,3.11
2022-11-24T20:49:18.081Z,3.10
2022-11-24T20:51:47.743Z,3.09
2022-11-24T20:54:17.132Z,3.07
2022-11-24T20:56:46.325Z,3.03
2022-11-24T20:59:21.254Z,3.07
2022-11-24T21:01:50.058Z,3.04
2022-11-24T21:04:21.000Z,3.02
2022-11-24T21:06:48.593Z,3.01
2022-11-24T21:09:16.081Z,2.97
2022-11-24T21:11:43.184Z,3.01
2022-11-24T21:14:11.147Z,2.99
2022-11-24T21:16:40.354Z,2.97
2022-11-24T21:19:11.677Z,2.97
2022-11-24T21:21:40.957Z,2.98
2022-11-24T21:24:16.624Z,2.97
2022-11-24T21:26:47.634Z,2.96
2022-11-24T21:29:17.327Z,2.95
2022-11-24T21:31:44.523Z,2.96
2022-11-24T21:34:15.935Z,2.93
2022-11-24T21:36:44.976Z,2.98
2022-11-24T21:39:13.908Z,2.93
2022-11-24T21:41:41.897Z,3.04
2022-11-24T21:44:11.403Z,3.13
2022-11-24T21:46:44.155Z,3.09
2022-11-24T21:49:15.070Z,3.15
2022-11-24T21:51:42.222Z,3.22
2022-11-24T21:54:09.389Z,3.26
2022-11-24T21:56:36.520Z,3.26
2022-11-24T21:59:03.612Z,3.37
2022-11-24T22:01:30.805Z,3.36
2022-11-24T22:03:57.998Z,3.42
2022-11-24T22:06:25.196Z,3.61
2022-11-24T22:08:52.408Z,3.69
2022-11-24T22:11:22.054Z,3.69
2022-11-24T22:13:50.207Z,3.68
2022-11-24T22:16:20.086Z,3.73
2022-11-24T22:18:47.308Z,3.77
2022-11-24T22:21:16.941Z,3.81
2022-11-24T22:23:44.288Z,3.88
2022-11-24T22:26:12.709Z,3.88
2022-11-24T22:28:40.449Z,3.91
2022-11-24T22:31:13.727Z,3.89
2022-11-24T22:33:41.227Z,3.89
2022-11-24T22:36:09.764Z,3.89
2022-11-24T22:38:38.528Z,3.87
2022-11-24T22:41:17.212Z,3.88
2022-11-24T22:43:45.817Z,3.87
2022-11-24T22:46:15.745Z,3.92
2022-11-24T22:48:43.455Z,3.74
2022-11-24T22:51:13.768Z,3.55
2022-11-24T22:53:41.806Z,3.38
2022-11-24T22:56:12.182Z,3.41
2022-11-24T22:58:40.126Z,3.34
2022-11-24T23:01:16.675Z,3.27
2022-11-24T23:03:44.151Z,3.26
2022-11-24T23:06:14.040Z,3.10
2022-11-24T23:08:41.734Z,2.92
2022-11-24T23:11:12.098Z,2.74
2022-11-24T23:13:39.775Z,2.56
2022-11-24T23:16:13.021Z,2.41
2022-11-24T23:18:40.795Z,2.35
2022-11-24T23:21:14.778Z,2.23
2022-11-24T23:23:42.481Z,2.33
2022-11-24T23:26:12.289Z,2.26
2022-11-24T23:28:39.769Z,2.40
2022-11-24T23:31:09.129Z,2.47
2022-11-24T23:33:36.785Z,2.59
2022-11-24T23:36:09.591Z,2.66
2022-11-24T23:38:37.032Z,2.64
2022-11-24T23:41:06.753Z,2.69
2022-11-24T23:43:35.102Z,2.64
2022-11-24T23:46:03.294Z,2.64
2022-11-24T23:48:30.664Z,2.66
2022-11-24T23:50:58.492Z,2.73
2022-11-24T23:53:25.578Z,2.68
2022-11-24T23:55:55.540Z,2.65
2022-11-24T23:58:23.020Z,2.57
